Time;durP1;ratioP1;P1;durP2;ratioP2;P2;SDS_P1;SDS_P2;PMS_P1;PMS_P2;Temp;Humidity;BMP_temperature;BMP_pressure;BME280_temperature;BME280_humidity;BME280_pressure;Samples;Min_cycle;Max_cycle;Signal;HPM_P1;HPM_P2
2022/05/11 00:00:13;;;;;;;17.20;7.15;;;;;;;12.70;nan;95254.09;5110063;28;20046;-84
2022/05/11 00:02:38;;;;;;;17.20;6.55;;;;;;;14.77;nan;95574.19;5110475;28;20556;-84
2022/05/11 00:05:07;;;;;;;14.40;7.20;;;;;;;13.49;nan;95345.78;5110482;28;20036;-84
2022/05/11 00:07:33;;;;;;;11.77;6.78;;;;;;;15.14;nan;95624.09;5100177;28;20033;-84
2022/05/11 00:09:58;;;;;;;11.07;6.47;;;;;;;13.33;nan;95316.97;5101022;28;20100;-83
2022/05/11 00:12:24;;;;;;;15.30;6.15;;;;;;;14.47;nan;95538.03;5108515;28;20475;-84
2022/05/11 00:14:50;;;;;;;9.38;5.88;;;;;;;14.16;nan;95444.28;5109935;28;20469;-84
2022/05/11 00:17:15;;;;;;;12.07;6.53;;;;;;;14.27;nan;95480.38;5106251;28;20046;-84
2022/05/11 00:19:41;;;;;;;18.98;6.32;;;;;;;13.07;nan;95292.50;5084549;28;20040;-83
2022/05/11 00:22:06;;;;;;;11.57;6.72;;;;;;;13.91;nan;95509.41;5091078;28;20127;-84
2022/05/11 00:24:32;;;;;;;20.35;7.75;;;;;;;10.03;nan;94852.06;5108502;28;20544;-84
2022/05/11 00:26:57;;;;;;;16.50;6.25;;;;;;;11.69;nan;95098.34;5100438;28;20428;-84
2022/05/11 00:29:23;;;;;;;17.10;6.70;;;;;;;11.12;nan;95084.03;5104979;28;20066;-84
2022/05/11 00:31:49;;;;;;;15.35;6.25;;;;;;;11.74;nan;95122.25;5085418;28;20586;-84
2022/05/11 00:34:14;;;;;;;16.27;6.22;;;;;;;14.12;nan;95473.38;5090789;28;20039;-83
2022/05/11 00:36:39;;;;;;;10.48;6.40;;;;;;;14.30;nan;95495.81;5101038;28;20039;-83
2022/05/11 00:39:05;;;;;;;9.73;6.20;;;;;;;13.85;nan;95449.25;5107582;28;20184;-84
2022/05/11 00:41:30;;;;;;;10.77;6.07;;;;;;;14.17;nan;95500.00;5082196;28;20044;-84
2022/05/11 00:44:01;;;;;;;13.88;6.43;;;;;;;11.55;nan;95116.00;5107888;28;20035;-83
2022/05/11 00:46:42;;;;;;;10.20;6.13;;;;;;;10.28;nan;94901.47;5099326;28;20493;-83
2022/05/11 00:52:01;;;;;;;14.85;6.00;;;;;;;13.28;nan;95480.28;5097154;28;20086;-84
2022/05/11 00:54:32;;;;;;;12.60;7.15;;;;;;;13.89;nan;95554.22;5100019;28;20531;-84
2022/05/11 00:57:02;;;;;;;11.00;6.57;;;;;;;12.92;nan;95399.97;5090410;28;20130;-83
2022/05/11 00:59:34;;;;;;;13.00;6.57;;;;;;;14.08;nan;95580.94;5090659;28;20043;-84
2022/05/11 01:02:04;;;;;;;12.52;6.28;;;;;;;13.11;nan;95406.16;5083477;28;20042;-83
2022/05/11 01:04:31;;;;;;;11.35;5.93;;;;;;;14.04;nan;95586.03;5092363;28;20078;-84
2022/05/11 01:06:58;;;;;;;17.30;6.25;;;;;;;13.28;nan;95466.19;5100738;28;20110;-84
2022/05/11 01:09:23;;;;;;;12.10;5.93;;;;;;;13.38;nan;95474.84;5097482;28;20044;-83
2022/05/11 01:11:53;;;;;;;9.43;6.15;;;;;;;13.89;nan;95541.69;5096913;28;20051;-84
2022/05/11 01:14:23;;;;;;;8.25;5.70;;;;;;;13.87;nan;95580.41;5099479;28;20495;-83
2022/05/11 01:16:49;;;;;;;13.45;5.78;;;;;;;13.40;nan;95510.00;5091316;28;20043;-83
2022/05/11 01:19:38;;;;;;;10.60;5.95;;;;;;;14.08;nan;95580.94;5101071;28;20096;-84
2022/05/11 01:22:31;;;;;;;11.57;6.13;;;;;;;12.97;nan;95407.88;5090449;28;20525;-84
2022/05/11 01:24:58;;;;;;;9.80;5.88;;;;;;;13.71;nan;95579.75;5109109;28;20242;-83
2022/05/11 01:27:27;;;;;;;13.18;5.07;;;;;;;13.84;nan;95573.75;5119839;28;21060;-83
2022/05/11 01:29:54;;;;;;;10.55;5.72;;;;;;;13.22;nan;95465.44;5089324;28;20110;-84
2022/05/11 01:32:20;;;;;;;11.00;6.35;;;;;;;13.12;nan;95457.56;5101761;28;20338;-84
2022/05/11 01:34:51;;;;;;;11.30;6.32;;;;;;;13.70;nan;95550.72;5090677;28;20047;-84
2022/05/11 01:37:17;;;;;;;10.82;5.97;;;;;;;13.29;nan;95455.25;5085732;28;20283;-83
2022/05/11 01:39:44;;;;;;;13.00;6.25;;;;;;;13.93;nan;95581.91;5079410;28;20048;-83
2022/05/11 01:42:11;;;;;;;13.07;6.18;;;;;;;13.33;nan;95469.59;5058447;28;20041;-83
2022/05/11 01:44:36;;;;;;;13.45;6.43;;;;;;;13.75;nan;95556.00;5086152;28;20044;-83
2022/05/11 01:47:02;;;;;;;10.70;6.05;;;;;;;12.75;nan;95432.31;5089824;28;20043;-83
2022/05/11 01:49:27;;;;;;;11.05;6.55;;;;;;;13.28;nan;95496.25;5122841;28;20040;-83
2022/05/11 01:51:53;;;;;;;12.93;6.40;;;;;;;11.56;nan;95261.81;5086194;28;20045;-83
2022/05/11 01:54:19;;;;;;;10.15;6.50;;;;;;;13.06;nan;95463.97;5086725;28;20040;-83
2022/05/11 01:56:45;;;;;;;11.20;6.20;;;;;;;13.36;nan;95503.66;5086139;28;20044;-83
2022/05/11 01:59:11;;;;;;;11.90;6.25;;;;;;;12.71;nan;95403.91;5091506;28;20109;-84
2022/05/11 02:01:40;;;;;;;10.15;5.85;;;;;;;13.29;nan;95521.84;5091341;28;20498;-85
2022/05/11 02:07:49;;;;;;;10.52;5.68;;;;;;;12.43;nan;95386.88;5091412;28;20063;-85
2022/05/11 02:09:36;;;;;;;9.57;6.78;;;;;;;13.23;nan;95514.97;5092338;28;20047;-85
2022/05/11 02:12:01;;;;;;;10.30;5.78;;;;;;;12.48;nan;95372.72;5092715;28;20123;-85
2022/05/11 02:14:26;;;;;;;16.27;6.18;;;;;;;13.51;nan;95527.47;5091599;28;20474;-85
2022/05/11 02:16:52;;;;;;;16.45;6.55;;;;;;;11.43;nan;95216.53;5091218;28;20044;-85
2022/05/11 02:19:17;;;;;;;17.88;6.85;;;;;;;13.70;nan;95580.84;5092254;28;20036;-85
2022/05/11 02:21:43;;;;;;;10.07;6.05;;;;;;;13.03;nan;95469.88;5091471;28;20429;-85
2022/05/11 02:24:08;;;;;;;21.42;7.20;;;;;;;13.21;nan;95487.03;5090956;28;20158;-85
2022/05/11 02:26:34;;;;;;;17.95;7.22;;;;;;;12.83;nan;95425.59;5092529;28;20051;-86
2022/05/11 02:28:59;;;;;;;12.60;6.22;;;;;;;12.71;nan;95455.25;5090629;28;20151;-85
2022/05/11 02:31:24;;;;;;;17.02;7.00;;;;;;;12.56;nan;95425.34;5087537;28;20071;-85
2022/05/11 02:33:50;;;;;;;14.18;5.97;;;;;;;13.45;nan;95543.78;5079834;28;20043;-85
2022/05/11 02:36:15;;;;;;;17.20;6.38;;;;;;;13.02;nan;95487.72;5092383;28;20044;-85
2022/05/11 02:38:42;;;;;;;16.35;6.82;;;;;;;12.48;nan;95394.00;5092498;28;20071;-85
2022/05/11 02:41:07;;;;;;;17.05;6.72;;;;;;;13.59;nan;95567.88;5091354;28;20589;-85
2022/05/11 02:43:33;;;;;;;26.05;7.90;;;;;;;12.51;nan;95436.03;5092181;28;20073;-85
2022/05/11 02:45:58;;;;;;;15.60;7.00;;;;;;;12.44;nan;95414.25;5090712;28;20044;-85
2022/05/11 02:48:25;;;;;;;14.77;7.05;;;;;;;13.41;nan;95575.53;5090322;28;20040;-85
2022/05/11 02:50:54;;;;;;;14.98;7.25;;;;;;;13.06;nan;95507.38;5090809;28;20055;-85
2022/05/11 02:53:20;;;;;;;13.23;7.25;;;;;;;12.43;nan;95394.06;5090197;28;20044;-86
2022/05/11 02:55:49;;;;;;;14.32;8.07;;;;;;;12.35;nan;95393.59;5092253;28;20506;-85
2022/05/11 02:58:16;;;;;;;14.25;7.95;;;;;;;13.04;nan;95482.91;5090408;28;20529;-85
2022/05/11 03:00:44;;;;;;;16.55;8.57;;;;;;;13.24;nan;95521.09;5091477;28;20070;-85
2022/05/11 03:03:11;;;;;;;15.68;7.03;;;;;;;13.82;nan;95591.88;5092002;28;20036;-85
2022/05/11 03:05:38;;;;;;;26.27;8.40;;;;;;;13.05;nan;95483.69;5091538;28;20101;-85
2022/05/11 03:08:05;;;;;;;24.92;7.05;;;;;;;13.71;nan;95576.31;5091309;28;20044;-85
2022/05/11 03:10:31;;;;;;;29.13;8.05;;;;;;;13.15;nan;95486.28;5090319;28;20047;-85
2022/05/11 03:12:57;;;;;;;19.95;7.93;;;;;;;13.22;nan;95493.94;5091136;28;20071;-85
2022/05/11 03:15:23;;;;;;;18.55;7.45;;;;;;;13.37;nan;95517.75;5091569;28;20060;-85
2022/05/11 03:17:49;;;;;;;28.90;8.15;;;;;;;11.75;nan;95307.13;5096815;28;20073;-85
2022/05/11 03:20:14;;;;;;;26.02;7.07;;;;;;;11.59;nan;95279.84;5083218;28;20048;-85
2022/05/11 03:22:40;;;;;;;21.55;7.63;;;;;;;13.65;nan;95598.75;5072771;28;20040;-85
2022/05/11 03:25:07;;;;;;;28.40;8.43;;;;;;;11.34;nan;95200.38;5093867;28;20040;-85
2022/05/11 03:27:33;;;;;;;17.58;8.25;;;;;;;12.68;nan;95447.84;5085067;28;20433;-86
2022/05/11 03:29:58;;;;;;;18.45;8.10;;;;;;;13.32;nan;95539.13;5093328;28;20043;-85
2022/05/11 03:35:10;;;;;;;13.98;7.93;;;;;;;13.93;nan;95600.59;5102725;28;20063;-86
2022/05/11 03:37:37;;;;;;;15.63;7.95;;;;;;;13.76;nan;95585.03;5085419;28;20051;-85
2022/05/11 03:40:07;;;;;;;14.80;8.15;;;;;;;14.05;nan;95611.63;5092951;28;20154;-85
2022/05/11 03:42:35;;;;;;;15.05;7.70;;;;;;;14.04;nan;95609.25;5092277;28;20039;-85
2022/05/11 03:45:11;;;;;;;12.70;7.55;;;;;;;14.06;nan;95610.56;5103049;28;20404;-85
2022/05/11 03:47:36;;;;;;;17.17;8.02;;;;;;;13.51;nan;95527.47;5106009;28;20050;-85
2022/05/11 03:50:02;;;;;;;11.27;7.93;;;;;;;14.16;nan;95617.66;5088911;28;20044;-85
2022/05/11 03:52:28;;;;;;;12.90;7.68;;;;;;;12.73;nan;95402.56;5092455;28;20586;-85
2022/05/11 03:54:53;;;;;;;19.58;8.43;;;;;;;13.84;nan;95549.75;5092408;28;20130;-85
2022/05/11 03:57:19;;;;;;;24.17;8.23;;;;;;;13.39;nan;95488.97;5100256;28;20435;-85
2022/05/11 03:59:44;;;;;;;18.50;9.07;;;;;;;12.86;nan;95405.63;5086764;28;20398;-85
2022/05/11 04:02:09;;;;;;;20.67;8.70;;;;;;;13.19;nan;95458.03;5087600;28;20483;-85
2022/05/11 04:04:35;;;;;;;16.45;8.48;;;;;;;13.87;nan;95535.88;5101470;28;20039;-85
2022/05/11 04:07:00;;;;;;;23.33;8.85;;;;;;;13.34;nan;95481.03;5104760;28;20241;-85
2022/05/11 04:09:26;;;;;;;20.23;8.95;;;;;;;14.11;nan;95615.81;5108045;28;20253;-85
2022/05/11 04:11:52;;;;;;;24.48;8.30;;;;;;;13.62;nan;95503.38;5094049;28;20501;-86
2022/05/11 04:14:17;;;;;;;23.30;9.45;;;;;;;14.22;nan;95597.84;5084136;28;20043;-85
2022/05/11 04:16:43;;;;;;;38.15;9.38;;;;;;;12.59;nan;95340.41;5098434;28;20070;-85
2022/05/11 04:19:09;;;;;;;26.27;8.98;;;;;;;14.56;nan;95630.53;5082812;28;20048;-84
2022/05/11 04:21:34;;;;;;;26.27;7.95;;;;;;;12.27;nan;95290.50;5098893;27;20040;-85
2022/05/11 04:24:00;;;;;;;23.02;8.27;;;;;;;13.46;nan;95494.75;5073311;28;20165;-84
2022/05/11 04:26:26;;;;;;;30.65;10.48;;;;;;;14.22;nan;95598.63;5099438;28;20470;-86
2022/05/11 04:28:52;;;;;;;30.77;9.50;;;;;;;13.25;nan;95434.78;5095425;28;20387;-86
2022/05/11 04:31:17;;;;;;;28.23;9.23;;;;;;;12.50;nan;95312.88;5072669;28;20115;-87
2022/05/11 04:33:43;;;;;;;20.73;7.90;;;;;;;14.07;nan;95582.00;5075235;28;20047;-87
2022/05/11 04:36:09;;;;;;;20.88;8.18;;;;;;;14.64;nan;95650.44;5086943;28;20032;-87
2022/05/11 04:38:40;;;;;;;22.77;8.45;;;;;;;11.27;nan;95149.47;5084354;28;20066;-87
2022/05/11 04:41:05;;;;;;;21.45;8.55;;;;;;;10.34;nan;95032.88;5090774;28;20058;-86
2022/05/11 04:43:51;;;;;;;13.52;7.88;;;;;;;13.74;nan;95557.84;5064649;28;20576;-89
2022/05/11 04:46:16;;;;;;;12.77;7.47;;;;;;;9.66;nan;94966.47;5063335;28;20184;-86
2022/05/11 04:48:45;;;;;;;23.42;6.95;;;;;;;13.50;nan;95576.50;5062995;28;20040;-85
2022/05/11 04:51:14;;;;;;;20.50;7.07;;;;;;;14.15;nan;95642.72;5062968;28;20697;-86
2022/05/11 04:53:40;;;;;;;17.52;7.43;;;;;;;10.07;nan;94986.34;5084937;27;20066;-86
2022/05/11 04:56:05;;;;;;;8.63;6.22;;;;;;;12.52;nan;95387.03;5079505;28;20522;-85
2022/05/11 04:58:31;;;;;;;12.57;6.22;;;;;;;12.86;nan;95395.78;5074157;28;20078;-86
2022/05/11 05:00:59;;;;;;;13.68;6.47;;;;;;;13.09;nan;95432.28;5062928;28;20040;-86
2022/05/11 05:03:25;;;;;;;15.82;7.05;;;;;;;9.52;nan;94910.69;5055430;28;20036;-86
2022/05/11 05:05:50;;;;;;;20.67;7.75;;;;;;;10.35;nan;95005.31;5061551;28;20035;-84
2022/05/11 05:08:16;;;;;;;26.60;7.63;;;;;;;14.09;nan;95606.53;5057100;28;20320;-85
2022/05/11 05:10:41;;;;;;;17.90;8.32;;;;;;;14.70;nan;95677.88;5075088;28;21072;-86
2022/05/11 05:13:11;;;;;;;17.75;8.27;;;;;;;14.24;nan;95639.16;5084108;27;20036;-86
2022/05/11 05:15:40;;;;;;;28.42;9.45;;;;;;;12.00;nan;95266.25;5072680;27;20093;-86
2022/05/11 05:18:06;;;;;;;21.08;8.80;;;;;;;14.70;nan;95667.19;5090154;28;20160;-86
2022/05/11 05:20:32;;;;;;;29.00;9.70;;;;;;;13.72;nan;95520.06;5086933;28;20036;-84
2022/05/11 05:22:58;;;;;;;20.80;9.13;;;;;;;13.72;nan;95546.72;5064038;28;20468;-85
2022/05/11 05:25:25;;;;;;;26.65;9.32;;;;;;;13.54;nan;95504.78;5061372;28;20611;-85
2022/05/11 05:27:52;;;;;;;22.48;9.35;;;;;;;12.70;nan;95379.16;5065335;28;20131;-85
2022/05/11 05:33:03;;;;;;;22.50;9.13;;;;;;;12.93;nan;95388.25;5079963;28;20114;-85
2022/05/11 05:35:29;;;;;;;28.08;9.52;;;;;;;12.31;nan;95309.31;5062462;28;20379;-86
2022/05/11 05:37:54;;;;;;;21.73;9.40;;;;;;;14.23;nan;95592.22;5081503;28;20554;-86
2022/05/11 05:40:19;;;;;;;28.55;9.25;;;;;;;14.55;nan;95634.28;5079680;28;20047;-86
2022/05/11 05:42:45;;;;;;;20.38;9.50;;;;;;;14.23;nan;95548.75;5058657;28;20039;-86
2022/05/11 05:45:11;;;;;;;36.50;10.75;;;;;;;13.25;nan;95395.66;5061795;28;20036;-86
2022/05/11 05:47:37;;;;;;;23.30;9.80;;;;;;;13.16;nan;95393.88;5066929;28;20105;-87
2022/05/11 05:50:06;;;;;;;22.25;9.65;;;;;;;13.17;nan;95424.75;5055422;28;20086;-86
2022/05/11 05:52:32;;;;;;;23.85;9.93;;;;;;;14.72;nan;95628.44;5062954;28;20040;-87
2022/05/11 05:54:58;;;;;;;21.27;9.30;;;;;;;12.62;nan;95331.09;5059352;28;20036;-87
2022/05/11 05:57:24;;;;;;;26.10;9.60;;;;;;;12.31;nan;95282.72;5081482;28;20137;-87
2022/05/11 05:59:52;;;;;;;27.08;11.45;;;;;;;13.82;nan;95463.94;5080827;28;20624;-87
2022/05/11 06:02:17;;;;;;;18.73;9.73;;;;;;;10.94;nan;95018.34;5070698;28;20886;-87
2022/05/11 06:04:46;;;;;;;24.20;10.40;;;;;;;12.26;nan;95229.59;5070048;28;20035;-87
2022/05/11 06:07:12;;;;;;;31.52;10.45;;;;;;;13.74;nan;95477.09;5072141;28;20561;-86
2022/05/11 06:09:39;;;;;;;22.25;9.88;;;;;;;13.70;nan;95463.56;5067610;28;20044;-86
2022/05/11 06:12:06;;;;;;;21.50;9.75;;;;;;;13.01;nan;95381.50;5056677;28;20387;-86
2022/05/11 06:14:31;;;;;;;19.63;9.73;;;;;;;14.72;nan;95606.28;5055229;28;20043;-87
2022/05/11 06:16:59;;;;;;;18.50;9.23;;;;;;;14.18;nan;95506.94;5053809;28;20051;-84
2022/05/11 06:19:26;;;;;;;24.08;9.32;;;;;;;13.12;nan;95346.47;5065403;28;20063;-84
2022/05/11 06:21:52;;;;;;;15.20;9.80;;;;;;;12.52;nan;95284.09;5069773;28;20488;-85
2022/05/11 06:24:19;;;;;;;19.42;9.02;;;;;;;14.38;nan;95583.25;5056704;28;20089;-85
2022/05/11 06:26:44;;;;;;;33.60;9.80;;;;;;;13.49;nan;95395.63;5057059;28;20849;-86
2022/05/11 06:29:10;;;;;;;22.85;10.13;;;;;;;15.07;nan;95625.25;5068025;28;20380;-86
2022/05/11 06:31:35;;;;;;;24.52;8.88;;;;;;;15.70;nan;95706.88;5082570;28;20109;-86
2022/05/11 06:34:01;;;;;;;20.77;8.88;;;;;;;15.59;nan;95705.44;5068566;28;20055;-85
2022/05/11 06:36:26;;;;;;;21.08;9.43;;;;;;;15.36;nan;95659.78;5057798;28;20052;-85
2022/05/11 06:38:53;;;;;;;23.63;11.25;;;;;;;13.58;nan;95393.88;5062557;28;20048;-85
2022/05/11 06:41:23;;;;;;;14.13;7.95;;;;;;;15.23;nan;95654.41;5066777;28;20091;-85
2022/05/11 06:43:55;;;;;;;22.17;8.02;;;;;;;15.24;nan;95643.44;5074605;28;20044;-85
2022/05/11 06:46:21;;;;;;;31.33;9.00;;;;;;;15.72;nan;95713.50;5072089;28;20922;-86
2022/05/11 06:48:48;;;;;;;28.60;11.07;;;;;;;13.29;nan;95311.41;5069170;28;20047;-86
2022/05/11 06:51:16;;;;;;;26.58;8.35;;;;;;;14.27;nan;95477.72;5072215;28;20083;-86
2022/05/11 06:59:26;;;;;;;15.77;9.35;;;;;;;15.31;nan;95641.19;5078866;28;20056;-86
2022/05/11 07:01:55;;;;;;;16.92;7.75;;;;;;;11.92;nan;95155.25;5071371;28;20044;-85
2022/05/11 07:04:22;;;;;;;18.88;8.07;;;;;;;15.18;nan;95585.78;5073600;28;20051;-86
2022/05/11 07:06:49;;;;;;;21.63;8.55;;;;;;;13.80;nan;95372.03;5065692;28;20040;-87
2022/05/11 07:09:17;;;;;;;13.63;7.05;;;;;;;14.15;nan;95472.81;5072360;28;20155;-86
2022/05/11 07:14:30;;;;;;;20.13;7.68;;;;;;;10.66;nan;94866.13;5072304;28;20047;-85
2022/05/11 07:16:56;;;;;;;30.48;7.70;;;;;;;15.50;nan;95610.94;5064560;28;20040;-86
2022/05/11 07:19:56;;;;;;;21.13;7.03;;;;;;;11.92;nan;95041.78;5068514;28;20138;-86
2022/05/11 07:22:33;;;;;;;26.10;7.55;;;;;;;14.15;nan;95365.34;5065197;28;21556;-87
2022/05/11 07:25:13;;;;;;;17.38;6.68;;;;;;;11.87;nan;95054.34;5064907;28;20076;-86
2022/05/11 07:31:12;;;;;;;16.15;7.05;;;;;;;15.04;nan;95446.88;5081259;28;20485;-86
2022/05/11 07:36:39;;;;;;;14.00;7.68;;;;;;;15.00;nan;95448.56;5056734;28;20059;-87
2022/05/11 07:39:52;;;;;;;13.63;7.55;;;;;;;14.85;nan;95386.63;5036505;28;20083;-86
2022/05/11 07:42:45;;;;;;;14.63;6.78;;;;;;;14.37;nan;95343.38;5026387;28;20036;-86
2022/05/11 07:45:15;;;;;;;12.00;5.55;;;;;;;13.05;nan;95132.25;5031037;28;20044;-85
2022/05/11 07:47:43;;;;;;;24.83;8.20;;;;;;;16.27;nan;95622.63;5047403;28;20033;-87
2022/05/11 07:50:18;;;;;;;18.55;6.15;;;;;;;11.71;nan;94933.34;5037074;28;20033;-87
2022/05/11 07:52:46;;;;;;;14.50;5.95;;;;;;;14.77;nan;95363.25;5034760;28;20041;-88
2022/05/11 07:55:16;;;;;;;13.68;6.82;;;;;;;15.49;nan;95440.94;5037769;28;20482;-85
2022/05/11 08:00:26;;;;;;;12.38;5.43;;;;;;;15.63;nan;95436.44;5057056;28;20086;-85
2022/05/11 08:02:52;;;;;;;14.30;6.47;;;;;;;16.86;nan;95643.09;5048120;28;20040;-86
2022/05/11 08:05:20;;;;;;;12.57;5.18;;;;;;;17.17;nan;95674.56;5030414;28;20565;-85
2022/05/11 08:07:47;;;;;;;14.73;6.38;;;;;;;17.21;nan;95670.22;5032169;28;20051;-86
2022/05/11 08:10:16;;;;;;;11.65;6.50;;;;;;;15.38;nan;95379.69;5039036;28;20817;-86
2022/05/11 08:12:45;;;;;;;12.15;5.30;;;;;;;13.34;nan;95026.38;5029053;28;20520;-86
2022/05/11 08:15:13;;;;;;;9.57;5.25;;;;;;;13.49;nan;95054.59;5031637;28;20040;-87
2022/05/11 08:17:41;;;;;;;16.25;5.80;;;;;;;16.29;nan;95448.38;5048162;28;20048;-87
2022/05/11 08:20:15;;;;;;;9.55;4.22;;;;;;;15.76;nan;95382.94;5033296;28;20147;-87
2022/05/11 08:22:45;;;;;;;9.55;3.97;;;;;;;13.88;nan;95072.78;5035625;28;20474;-88
2022/05/11 08:25:13;;;;;;;17.17;4.77;;;;;;;13.50;nan;95037.53;5036843;28;20546;-89
2022/05/11 08:27:39;;;;;;;18.70;5.13;;;;;;;13.27;nan;95001.22;5030029;28;21347;-86
2022/05/11 08:35:34;;;;;;;9.50;4.28;;;;;;;17.11;nan;95518.47;5051964;28;20052;-85
2022/05/11 08:38:00;;;;;;;8.88;4.38;;;;;;;17.62;nan;95579.66;5036449;28;20037;-85
2022/05/11 08:40:36;;;;;;;15.23;4.45;;;;;;;17.28;nan;95532.00;5042969;28;20657;-85
2022/05/11 08:43:03;;;;;;;6.60;3.92;;;;;;;17.35;nan;95550.31;5057174;28;21070;-85
2022/05/11 08:45:39;;;;;;;12.98;4.50;;;;;;;17.83;nan;95622.06;5053953;28;20052;-87
2022/05/11 08:48:09;;;;;;;11.15;4.00;;;;;;;18.05;nan;95640.81;5042163;28;20127;-86
2022/05/11 08:50:43;;;;;;;9.45;4.25;;;;;;;16.60;nan;95425.16;5033798;28;20040;-86
2022/05/11 08:53:42;;;;;;;11.90;4.80;;;;;;;16.46;nan;95378.94;5052512;28;20048;-85
2022/05/11 08:56:15;;;;;;;12.15;4.38;;;;;;;17.52;nan;95533.53;5054184;28;20539;-85
2022/05/11 08:58:49;;;;;;;6.57;3.88;;;;;;;17.85;nan;95575.03;5038836;28;20247;-87
2022/05/11 09:01:23;;;;;;;9.43;4.13;;;;;;;18.32;nan;95651.31;5031858;28;20597;-85
2022/05/11 09:03:55;;;;;;;7.10;4.45;;;;;;;17.71;nan;95531.41;5052533;28;20515;-87
2022/05/11 09:06:30;;;;;;;10.18;3.72;;;;;;;18.34;nan;95616.91;5038633;28;20442;-85
2022/05/11 09:09:03;;;;;;;7.35;3.53;;;;;;;17.80;nan;95534.16;5039629;28;20048;-87
2022/05/11 09:11:41;;;;;;;10.02;3.78;;;;;;;17.90;nan;95526.63;5019164;28;20515;-85
2022/05/11 09:14:08;;;;;;;6.45;3.33;;;;;;;18.70;nan;95646.25;5045241;28;20056;-85
2022/05/11 09:16:41;;;;;;;8.70;3.35;;;;;;;16.58;nan;95294.25;5040611;28;20043;-85
2022/05/11 09:19:10;;;;;;;4.32;3.17;;;;;;;17.53;nan;95442.06;5052910;28;20426;-85
2022/05/11 09:21:38;;;;;;;9.38;4.13;;;;;;;18.01;nan;95513.69;5032041;28;20071;-85
2022/05/11 09:24:21;;;;;;;10.55;3.42;;;;;;;18.44;nan;95562.13;5029191;28;20044;-85
2022/05/11 09:27:01;;;;;;;8.50;3.28;;;;;;;18.79;nan;95596.00;5044217;28;20367;-85
2022/05/11 09:29:35;;;;;;;8.43;3.17;;;;;;;18.22;nan;95509.34;5027119;28;20058;-86
2022/05/11 09:32:24;;;;;;;10.00;3.05;;;;;;;19.03;nan;95633.16;5030151;28;20301;-86
2022/05/11 09:34:50;;;;;;;6.13;2.30;;;;;;;18.33;nan;95548.19;5024072;28;20383;-86
2022/05/11 09:37:35;;;;;;;4.90;2.83;;;;;;;18.98;nan;95633.34;5052495;28;20041;-86
2022/05/11 09:40:17;;;;;;;5.97;2.50;;;;;;;19.11;nan;95629.69;5053176;28;20685;-86
2022/05/11 09:42:58;;;;;;;4.68;2.55;;;;;;;19.21;nan;95628.59;5032179;28;20256;-86
2022/05/11 09:45:38;;;;;;;;;;;;;;;19.70;nan;95632.66;5037695;28;20357;-86
2022/05/11 09:48:16;;;;;;;3.78;2.40;;;;;;;19.39;nan;95460.72;5048161;28;20028;-86
2022/05/11 09:50:42;;;;;;;8.05;2.63;;;;;;;19.06;nan;95323.44;5049258;28;20562;-86
2022/05/11 09:53:24;;;;;;;8.75;3.05;;;;;;;19.82;nan;95237.22;5052484;28;20055;-86
2022/05/11 09:55:50;;;;;;;5.72;2.20;;;;;;;21.15;nan;95362.63;5045089;28;20781;-86
2022/05/11 09:58:34;;;;;;;8.98;3.17;;;;;;;23.77;nan;95553.38;5055787;28;20257;-86
2022/05/11 10:01:13;;;;;;;12.15;3.25;;;;;;;23.57;nan;95595.81;5044266;28;20032;-88
2022/05/11 10:03:53;;;;;;;4.25;2.85;;;;;;;22.57;nan;95356.13;5035889;28;20153;-88
2022/05/11 10:06:21;;;;;;;3.22;2.20;;;;;;;21.98;nan;95110.25;5059887;28;20040;-86
2022/05/11 10:08:49;;;;;;;7.18;2.58;;;;;;;23.53;nan;95278.19;5033900;28;20060;-88
2022/05/11 10:11:22;;;;;;;6.28;3.25;;;;;;;23.73;nan;95274.38;5037644;28;20040;-88
2022/05/11 10:14:00;;;;;;;6.20;2.72;;;;;;;25.46;nan;95601.03;5046801;28;20041;-86
2022/05/11 10:22:47;;;;;;;;;;;;;;;25.53;nan;95587.59;5057337;28;20317;-86
2022/05/11 10:25:39;;;;;;;4.55;2.60;;;;;;;25.61;nan;95586.63;5009718;28;20038;-85
2022/05/11 10:28:29;;;;;;;5.15;2.78;;;;;;;25.37;nan;95571.38;5023201;28;20088;-86
2022/05/11 10:31:21;;;;;;;9.15;2.55;;;;;;;25.98;nan;95590.41;5046672;28;20167;-85
2022/05/11 10:34:11;;;;;;;9.27;2.50;;;;;;;25.58;nan;95403.44;5030247;28;20530;-86
2022/05/11 10:37:01;;;;;;;8.93;3.03;;;;;;;23.90;nan;95164.06;5024685;28;20423;-86
2022/05/11 10:39:34;;;;;;;5.28;2.60;;;;;;;27.01;nan;95585.81;5018328;28;20067;-85
2022/05/11 10:46:17;;;;;;;;;;;;;;;;;;;;;
2022/05/11 10:49:14;;;;;;;4.70;2.70;;;;;;;25.12;nan;95334.00;5027710;28;20094;-88
2022/05/11 10:51:58;;;;;;;6.55;2.67;;;;;;;26.96;nan;95591.59;5026376;28;20673;-88
2022/05/11 10:55:05;;;;;;;4.43;3.25;;;;;;;26.78;nan;95591.28;5045084;28;20452;-87
2022/05/11 10:58:19;;;;;;;7.00;2.50;;;;;;;25.99;nan;95593.91;5027528;28;20110;-87
2022/05/11 11:01:50;;;;;;;7.03;2.47;;;;;;;25.74;nan;95588.00;5045833;28;20499;-88
2022/05/11 11:07:44;;;;;;;11.95;3.60;;;;;;;23.14;nan;95545.09;5043776;28;20102;-86
2022/05/11 11:10:26;;;;;;;19.20;3.40;;;;;;;22.87;nan;95606.16;5040332;28;20047;-86
2022/05/11 11:13:27;;;;;;;17.67;3.67;;;;;;;22.28;nan;95609.28;5048524;28;20040;-89
2022/05/11 11:15:54;;;;;;;12.27;3.60;;;;;;;21.10;nan;95511.16;5058098;28;20113;-88
2022/05/11 11:18:30;;;;;;;8.27;2.80;;;;;;;21.10;nan;95578.56;5064723;28;20127;-87
2022/05/11 11:21:01;;;;;;;7.05;3.08;;;;;;;20.38;nan;95466.56;5042571;28;20047;-87
2022/05/11 11:23:27;;;;;;;8.95;2.97;;;;;;;21.18;nan;95618.19;5062171;28;21879;-88
2022/05/11 11:25:58;;;;;;;10.95;3.10;;;;;;;19.48;nan;95420.38;5047159;28;20131;-87
2022/05/11 11:28:31;;;;;;;9.40;3.78;;;;;;;20.74;nan;95625.00;5073077;28;20504;-87
2022/05/11 11:30:59;;;;;;;15.60;2.90;;;;;;;20.72;nan;95635.31;5049208;28;20047;-87
2022/05/11 11:33:39;;;;;;;12.95;3.22;;;;;;;20.09;nan;95598.50;5054521;28;20131;-87
2022/05/11 11:36:26;;;;;;;11.57;2.53;;;;;;;20.24;nan;95633.78;5057399;28;20044;-86
2022/05/11 11:38:53;;;;;;;6.00;2.20;;;;;;;18.22;nan;95377.00;5058104;28;20036;-88
2022/05/11 11:41:22;;;;;;;6.35;2.88;;;;;;;19.98;nan;95582.72;5088192;28;20044;-86
2022/05/11 11:44:04;;;;;;;12.90;3.08;;;;;;;20.35;nan;95616.19;5072102;28;20422;-87
2022/05/11 11:46:35;;;;;;;7.65;2.60;;;;;;;20.54;nan;95621.13;5054805;28;20120;-87
2022/05/11 11:49:07;;;;;;;11.00;2.72;;;;;;;20.61;nan;95621.41;5043997;28;20380;-87
2022/05/11 11:51:50;;;;;;;10.43;3.00;;;;;;;20.59;nan;95625.56;5039853;28;20263;-87
2022/05/11 11:54:37;;;;;;;5.35;2.15;;;;;;;20.74;nan;95612.31;5046070;28;20052;-87
2022/05/11 11:57:19;;;;;;;9.88;2.10;;;;;;;19.97;nan;95462.72;5060075;28;20387;-85
2022/05/11 12:00:05;;;;;;;7.07;1.80;;;;;;;20.74;nan;95566.50;5045131;28;20045;-86
2022/05/11 12:02:43;;;;;;;11.88;2.47;;;;;;;17.65;nan;95061.44;5053739;28;20063;-85
2022/05/11 12:05:22;;;;;;;5.40;2.63;;;;;;;19.54;nan;95344.53;5044710;28;20052;-84
2022/05/11 12:17:00;;;;;;;8.45;2.72;;;;;;;20.31;nan;95391.66;5083818;28;20490;-85
2022/05/11 12:19:33;;;;;;;5.75;2.60;;;;;;;17.95;nan;95042.72;5075282;28;20116;-86
2022/05/11 12:22:22;;;;;;;15.98;4.75;;;;;;;17.74;nan;95091.72;5045545;28;20055;-84
2022/05/11 12:25:31;;;;;;;6.97;3.58;;;;;;;21.33;nan;95608.72;5040323;28;20109;-85
2022/05/11 12:28:00;;;;;;;12.88;2.95;;;;;;;19.44;nan;95401.38;5013811;28;20587;-85
2022/05/11 12:30:32;;;;;;;7.20;3.25;;;;;;;18.35;nan;95290.13;5058203;28;20059;-86
2022/05/11 12:33:07;;;;;;;14.32;3.33;;;;;;;18.26;nan;95351.09;5044100;28;20153;-84
2022/05/11 12:35:36;;;;;;;8.35;2.65;;;;;;;19.99;nan;95619.28;5053745;28;20945;-86
2022/05/11 12:38:11;;;;;;;8.75;2.95;;;;;;;16.33;nan;95055.94;5058856;28;20048;-86
2022/05/11 12:40:43;;;;;;;5.65;3.05;;;;;;;19.80;nan;95573.13;5069269;28;20036;-87
2022/05/11 12:43:25;;;;;;;5.45;2.92;;;;;;;19.81;nan;95593.56;5061251;28;20048;-87
2022/05/11 12:45:53;;;;;;;9.57;3.20;;;;;;;19.25;nan;95490.50;5059416;28;20063;-86
2022/05/11 12:48:21;;;;;;;7.53;3.03;;;;;;;18.08;nan;95312.72;5069409;28;20070;-86
2022/05/11 12:50:54;;;;;;;10.68;3.20;;;;;;;19.97;nan;95583.06;5076284;28;20086;-85
2022/05/11 12:53:23;;;;;;;7.10;2.90;;;;;;;19.88;nan;95548.09;5077896;28;20075;-86
2022/05/11 12:55:53;;;;;;;5.90;2.25;;;;;;;18.25;nan;95317.31;5038301;28;20044;-86
2022/05/11 12:58:25;;;;;;;6.18;2.55;;;;;;;19.32;nan;95456.94;5064512;28;20532;-86
2022/05/11 13:00:59;;;;;;;23.73;6.28;;;;;;;18.32;nan;95286.19;5066162;28;20166;-86